Historique des mesures à Cassis (13260), France
Quotidien Résumé Mars 8, 2017 Unités:  US    Métrique   Métrique/US
« Précédent (Jour)
Suivant (Jour) »
Quotidien Hebdomadaire Mensuel Annuel Période au choix
  Maximum: Minimum: Moyenne:
Température: 32 °F 45 °F 54.5 °F
Point de rosée: 32 °F 30.2 °F 37.8 °F
Humidité: Humidity % 43 % 50 %
Vitesse du vent: WindSpeedKMH mph 0.0 mph 10 mph
Rafales: WindSpeedGustKMH mph - -
Vent:- - SSW
Pression: 0 in 30 in -
Précipitations: 0 in    
Historical Graphs
 
 
Mesures pour : Mars 8, 2017
Heure Temperature Point de rosée Pression Vent Vitesse du vent Rafales Humidité Pluie (par heure) Conditions
32 °F 32 °F 0 in Calm     Humidity % 0 in SoftwareType W/m2
00:11 48.9 °F 31.5 °F 30 in WNW 18.3 mph 33.8 mph 51 % 0 in open2300-1.11 W/m2
01:10 47.8 °F 31.8 °F 30 in NNW 14.0 mph 29.1 mph 54 % 0 in open2300-1.11 W/m2
02:11 47.3 °F 31.5 °F 30 in NE 16.6 mph 19.1 mph 54 % 0 in open2300-1.11 W/m2
03:10 47.7 °F 30.7 °F 30 in NNE 9.3 mph 9.3 mph 52 % 0 in open2300-1.11 W/m2
04:11 47.5 °F 30.6 °F 30 in NW 20.6 mph 20.6 mph 52 % 0 in open2300-1.11 W/m2
05:10 47.1 °F 30.4 °F 30 in NW 8.2 mph 8.2 mph 52 % 0 in open2300-1.11 W/m2
06:11 47.1 °F 30.7 °F 30 in ENE 1.4 mph 2.6 mph 53 % 0 in open2300-1.11 W/m2
07:10 45 °F 30.2 °F 30.1 in NNE 2.6 mph 5.5 mph 56 % 0 in open2300-1.11 W/m2
08:11 47.8 °F 32.7 °F 30.1 in Calm     56 % 0 in open2300-1.11 W/m2
09:10 50.2 °F 32.7 °F 30.1 in NNE 17.2 mph 17.2 mph 51 % 0 in open2300-1.11 W/m2
10:11 51.8 °F 33.3 °F 30.1 in Calm     49 % 0 in open2300-1.11 W/m2
11:10 55.8 °F 33.4 °F 30.1 in NNW 10.1 mph 10.1 mph 43 % 0 in open2300-1.11 W/m2
12:11 59.2 °F 37.8 °F 30.1 in WNW 12.6 mph 29.4 mph 45 % 0 in open2300-1.11 W/m2
13:10 60.6 °F 39.6 °F 30.1 in NW 17.2 mph 20.9 mph 46 % 0 in open2300-1.11 W/m2
14:11 63.1 °F 43.5 °F 30.1 in NNE 1.4 mph 17.7 mph 49 % 0 in open2300-1.11 W/m2
15:10 64.2 °F 45.1 °F 30.1 in NW 24.5 mph 24.5 mph 50 % 0 in open2300-1.11 W/m2
16:11 64.8 °F 45.7 °F 30.1 in NNE 7.6 mph 16.3 mph 50 % 0 in open2300-1.11 W/m2
17:10 64.4 °F 46.2 °F 30.1 in West 6.8 mph 9.7 mph 52 % 0 in open2300-1.11 W/m2
18:11 63.5 °F 46 °F 30.1 in West 7.6 mph 12.2 mph 53 % 0 in open2300-1.11 W/m2
19:10 61.9 °F 46 °F 30.1 in NNW 5.5 mph 11.9 mph 56 % 0 in open2300-1.11 W/m2
20:11 61 °F 46 °F 30.1 in North 6.8 mph 27.7 mph 58 % 0 in open2300-1.11 W/m2
21:11 61.9 °F 45.5 °F 30.1 in NW 27.0 mph 27.0 mph 55 % 0 in open2300-1.11 W/m2
22:11 61 °F 45.7 °F 30.1 in ESE 5.5 mph 5.5 mph 57 % 0 in open2300-1.11 W/m2
23:10 59.7 °F 45 °F 30.1 in NNW 10.1 mph 11.1 mph 58 % 0 in open2300-1.11 W/m2
Observations météo à CASSIS
WU-History script by Weather Underground - 1 mb